sensor_id;sensor_type;location;lat;lon;timestamp;pressure;altitude;pressure_sealevel;temperature;humidity
54038;BME280;39954;48.844;9.726;2023-07-29T00:00:48;95766.91;;;14.88;100.00
54038;BME280;39954;48.844;9.726;2023-07-29T00:01:50;95769.50;;;14.88;100.00
54038;BME280;39954;48.844;9.726;2023-07-29T00:02:53;95765.09;;;14.88;100.00
54038;BME280;39954;48.844;9.726;2023-07-29T00:03:59;95761.78;;;14.86;100.00
54038;BME280;39954;48.844;9.726;2023-07-29T00:05:02;95756.69;;;14.85;100.00
54038;BME280;39954;48.844;9.726;2023-07-29T00:06:07;95758.69;;;14.81;100.00
54038;BME280;39954;48.844;9.726;2023-07-29T00:07:09;95751.22;;;14.76;100.00
54038;BME280;39954;48.844;9.726;2023-07-29T00:08:14;95756.94;;;14.70;100.00
54038;BME280;39954;48.844;9.726;2023-07-29T00:09:16;95758.94;;;14.67;100.00
54038;BME280;39954;48.844;9.726;2023-07-29T00:10:24;95756.81;;;14.61;100.00
54038;BME280;39954;48.844;9.726;2023-07-29T00:11:26;95760.38;;;14.60;100.00
54038;BME280;39954;48.844;9.726;2023-07-29T00:12:32;95763.69;;;14.62;100.00
54038;BME280;39954;48.844;9.726;2023-07-29T00:13:35;95764.16;;;14.55;100.00
54038;BME280;39954;48.844;9.726;2023-07-29T00:14:40;95755.94;;;14.49;100.00
54038;BME280;39954;48.844;9.726;2023-07-29T00:15:43;95755.56;;;14.42;100.00
54038;BME280;39954;48.844;9.726;2023-07-29T00:16:49;95749.03;;;14.37;100.00
54038;BME280;39954;48.844;9.726;2023-07-29T00:17:52;95764.03;;;14.35;100.00
54038;BME280;39954;48.844;9.726;2023-07-29T00:18:58;95763.53;;;14.29;100.00
54038;BME280;39954;48.844;9.726;2023-07-29T00:20:01;95766.25;;;14.28;100.00
54038;BME280;39954;48.844;9.726;2023-07-29T00:21:10;95765.44;;;14.27;100.00
54038;BME280;39954;48.844;9.726;2023-07-29T00:22:12;95758.91;;;14.22;100.00
54038;BME280;39954;48.844;9.726;2023-07-29T00:23:18;95759.03;;;14.20;100.00
54038;BME280;39954;48.844;9.726;2023-07-29T00:24:21;95756.75;;;14.16;100.00
54038;BME280;39954;48.844;9.726;2023-07-29T00:25:28;95757.72;;;14.15;100.00
54038;BME280;39954;48.844;9.726;2023-07-29T00:26:31;95759.72;;;14.11;100.00
54038;BME280;39954;48.844;9.726;2023-07-29T00:27:36;95758.28;;;14.07;100.00
54038;BME280;39954;48.844;9.726;2023-07-29T00:28:38;95761.88;;;14.06;100.00
54038;BME280;39954;48.844;9.726;2023-07-29T00:29:41;95752.47;;;14.03;100.00
54038;BME280;39954;48.844;9.726;2023-07-29T00:30:46;95754.22;;;14.03;100.00
54038;BME280;39954;48.844;9.726;2023-07-29T00:31:48;95758.63;;;14.02;100.00
54038;BME280;39954;48.844;9.726;2023-07-29T00:32:53;95759.69;;;14.00;100.00
54038;BME280;39954;48.844;9.726;2023-07-29T00:33:56;95761.47;;;13.99;100.00
54038;BME280;39954;48.844;9.726;2023-07-29T00:35:00;95758.75;;;14.01;100.00
54038;BME280;39954;48.844;9.726;2023-07-29T00:36:03;95757.81;;;14.02;100.00
54038;BME280;39954;48.844;9.726;2023-07-29T00:37:08;95763.75;;;14.04;100.00
54038;BME280;39954;48.844;9.726;2023-07-29T00:38:12;95756.50;;;14.07;100.00
54038;BME280;39954;48.844;9.726;2023-07-29T00:39:17;95758.06;;;14.10;100.00
54038;BME280;39954;48.844;9.726;2023-07-29T00:40:22;95758.66;;;14.14;100.00
54038;BME280;39954;48.844;9.726;2023-07-29T00:41:29;95759.47;;;14.14;100.00
54038;BME280;39954;48.844;9.726;2023-07-29T00:42:32;95758.41;;;14.17;100.00
54038;BME280;39954;48.844;9.726;2023-07-29T00:43:34;95754.88;;;14.18;100.00
54038;BME280;39954;48.844;9.726;2023-07-29T00:44:39;95749.41;;;14.21;100.00
54038;BME280;39954;48.844;9.726;2023-07-29T00:45:43;95752.50;;;14.26;100.00
54038;BME280;39954;48.844;9.726;2023-07-29T00:46:50;95753.34;;;14.26;100.00
54038;BME280;39954;48.844;9.726;2023-07-29T00:47:53;95745.34;;;14.28;100.00
54038;BME280;39954;48.844;9.726;2023-07-29T00:48:59;95745.34;;;14.28;100.00
54038;BME280;39954;48.844;9.726;2023-07-29T00:50:01;95744.44;;;14.29;100.00
54038;BME280;39954;48.844;9.726;2023-07-29T00:51:06;95741.81;;;14.29;100.00
54038;BME280;39954;48.844;9.726;2023-07-29T00:52:09;95736.59;;;14.29;100.00
54038;BME280;39954;48.844;9.726;2023-07-29T00:53:14;95734.91;;;14.28;100.00
54038;BME280;39954;48.844;9.726;2023-07-29T00:54:16;95740.13;;;14.28;100.00
54038;BME280;39954;48.844;9.726;2023-07-29T00:55:22;95739.31;;;14.27;100.00
54038;BME280;39954;48.844;9.726;2023-07-29T00:56:24;95734.91;;;14.28;100.00
54038;BME280;39954;48.844;9.726;2023-07-29T00:57:30;95729.69;;;14.28;100.00
54038;BME280;39954;48.844;9.726;2023-07-29T00:58:37;95741.69;;;14.30;100.00
54038;BME280;39954;48.844;9.726;2023-07-29T00:59:39;95738.25;;;14.30;100.00
54038;BME280;39954;48.844;9.726;2023-07-29T01:00:45;95742.97;;;14.36;100.00
54038;BME280;39954;48.844;9.726;2023-07-29T01:01:47;95745.34;;;14.39;100.00
54038;BME280;39954;48.844;9.726;2023-07-29T01:02:52;95742.75;;;14.39;100.00
54038;BME280;39954;48.844;9.726;2023-07-29T01:03:57;95731.47;;;14.39;100.00
54038;BME280;39954;48.844;9.726;2023-07-29T01:05:03;95731.47;;;14.39;100.00
54038;BME280;39954;48.844;9.726;2023-07-29T01:06:12;95730.63;;;14.38;100.00
54038;BME280;39954;48.844;9.726;2023-07-29T01:07:22;95726.22;;;14.39;100.00
54038;BME280;39954;48.844;9.726;2023-07-29T01:08:33;95727.06;;;14.39;100.00
54038;BME280;39954;48.844;9.726;2023-07-29T01:09:50;95728.84;;;14.39;100.00
54038;BME280;39954;48.844;9.726;2023-07-29T01:11:03;95725.41;;;14.38;100.00
54038;BME280;39954;48.844;9.726;2023-07-29T01:12:16;95722.78;;;14.38;100.00
54038;BME280;39954;48.844;9.726;2023-07-29T01:13:28;95719.34;;;14.38;100.00
54038;BME280;39954;48.844;9.726;2023-07-29T01:14:38;95716.03;;;14.36;100.00
54038;BME280;39954;48.844;9.726;2023-07-29T01:15:48;95713.53;;;14.34;100.00
54038;BME280;39954;48.844;9.726;2023-07-29T01:17:00;95714.47;;;14.33;100.00
54038;BME280;39954;48.844;9.726;2023-07-29T01:18:05;95718.88;;;14.32;100.00
54038;BME280;39954;48.844;9.726;2023-07-29T01:19:20;95714.59;;;14.31;100.00
54038;BME280;39954;48.844;9.726;2023-07-29T01:20:33;95719.94;;;14.30;100.00
54038;BME280;39954;48.844;9.726;2023-07-29T01:21:39;95722.56;;;14.30;100.00
54038;BME280;39954;48.844;9.726;2023-07-29T01:22:41;95723.28;;;14.32;100.00
54038;BME280;39954;48.844;9.726;2023-07-29T01:23:46;95718.97;;;14.31;100.00
54038;BME280;39954;48.844;9.726;2023-07-29T01:24:51;95726.72;;;14.32;100.00
54038;BME280;39954;48.844;9.726;2023-07-29T01:25:54;95725.88;;;14.32;100.00
54038;BME280;39954;48.844;9.726;2023-07-29T01:26:58;95722.31;;;14.33;100.00
54038;BME280;39954;48.844;9.726;2023-07-29T01:28:03;95722.31;;;14.33;100.00
54038;BME280;39954;48.844;9.726;2023-07-29T01:29:08;95718.78;;;14.34;100.00
54038;BME280;39954;48.844;9.726;2023-07-29T01:30:11;95722.06;;;14.36;100.00
54038;BME280;39954;48.844;9.726;2023-07-29T01:31:26;95716.84;;;14.36;100.00
54038;BME280;39954;48.844;9.726;2023-07-29T01:32:36;95722.06;;;14.36;100.00
54038;BME280;39954;48.844;9.726;2023-07-29T01:33:45;95721.16;;;14.37;100.00
54038;BME280;39954;48.844;9.726;2023-07-29T01:34:53;95714.94;;;14.38;100.00
54038;BME280;39954;48.844;9.726;2023-07-29T01:36:03;95714.13;;;14.38;100.00
54038;BME280;39954;48.844;9.726;2023-07-29T01:37:07;95711.50;;;14.38;100.00
54038;BME280;39954;48.844;9.726;2023-07-29T01:38:16;95716.59;;;14.39;100.00
54038;BME280;39954;48.844;9.726;2023-07-29T01:39:23;95715.53;;;14.42;100.00
54038;BME280;39954;48.844;9.726;2023-07-29T01:40:29;95705.91;;;14.42;100.00
54038;BME280;39954;48.844;9.726;2023-07-29T01:41:31;95716.38;;;14.42;100.00
54038;BME280;39954;48.844;9.726;2023-07-29T01:42:37;95705.06;;;14.42;100.00
54038;BME280;39954;48.844;9.726;2023-07-29T01:43:40;95708.53;;;14.42;100.00
54038;BME280;39954;48.844;9.726;2023-07-29T01:44:46;95706.75;;;14.43;100.00
54038;BME280;39954;48.844;9.726;2023-07-29T01:45:48;95710.19;;;14.43;100.00
54038;BME280;39954;48.844;9.726;2023-07-29T01:46:55;95704.00;;;14.44;100.00
54038;BME280;39954;48.844;9.726;2023-07-29T01:47:57;95705.44;;;14.48;100.00
54038;BME280;39954;48.844;9.726;2023-07-29T01:49:02;95695.00;;;14.48;100.00
54038;BME280;39954;48.844;9.726;2023-07-29T01:50:08;95702.84;;;14.48;100.00
54038;BME280;39954;48.844;9.726;2023-07-29T01:51:12;95701.41;;;14.44;100.00
54038;BME280;39954;48.844;9.726;2023-07-29T01:52:17;95704.25;;;14.41;100.00
54038;BME280;39954;48.844;9.726;2023-07-29T01:53:20;95702.00;;;14.37;100.00
54038;BME280;39954;48.844;9.726;2023-07-29T01:54:27;95700.47;;;14.34;100.00
54038;BME280;39954;48.844;9.726;2023-07-29T01:55:30;95699.03;;;14.30;100.00
54038;BME280;39954;48.844;9.726;2023-07-29T01:56:34;95698.31;;;14.28;100.00
54038;BME280;39954;48.844;9.726;2023-07-29T01:57:37;95700.22;;;14.26;100.00
54038;BME280;39954;48.844;9.726;2023-07-29T01:58:42;95699.50;;;14.24;100.00
54038;BME280;39954;48.844;9.726;2023-07-29T01:59:44;95701.16;;;14.25;100.00
54038;BME280;39954;48.844;9.726;2023-07-29T02:00:46;95697.84;;;14.23;100.00
54038;BME280;39954;48.844;9.726;2023-07-29T02:01:51;95701.31;;;14.23;100.00
54038;BME280;39954;48.844;9.726;2023-07-29T02:02:53;95700.47;;;14.23;100.00
54038;BME280;39954;48.844;9.726;2023-07-29T02:03:58;95704.75;;;14.24;100.00
54038;BME280;39954;48.844;9.726;2023-07-29T02:05:00;95699.50;;;14.24;100.00
54038;BME280;39954;48.844;9.726;2023-07-29T02:06:03;95701.06;;;14.26;100.00
54038;BME280;39954;48.844;9.726;2023-07-29T02:07:08;95705.22;;;14.29;100.00
54038;BME280;39954;48.844;9.726;2023-07-29T02:08:10;95699.84;;;14.30;100.00
54038;BME280;39954;48.844;9.726;2023-07-29T02:09:13;95707.47;;;14.33;100.00
54038;BME280;39954;48.844;9.726;2023-07-29T02:10:20;95697.63;;;14.37;100.00
54038;BME280;39954;48.844;9.726;2023-07-29T02:11:22;95698.19;;;14.41;100.00
54038;BME280;39954;48.844;9.726;2023-07-29T02:12:29;95705.91;;;14.42;100.00
54038;BME280;39954;48.844;9.726;2023-07-29T02:13:32;95705.69;;;14.45;100.00
54038;BME280;39954;48.844;9.726;2023-07-29T02:14:37;95714.72;;;14.52;100.00
54038;BME280;39954;48.844;9.726;2023-07-29T02:15:39;95706.78;;;14.54;100.00
54038;BME280;39954;48.844;9.726;2023-07-29T02:16:44;95709.97;;;14.58;100.00
54038;BME280;39954;48.844;9.726;2023-07-29T02:17:46;95708.19;;;14.58;100.00
54038;BME280;39954;48.844;9.726;2023-07-29T02:18:51;95710.69;;;14.60;100.00
54038;BME280;39954;48.844;9.726;2023-07-29T02:19:57;95705.34;;;14.61;100.00
54038;BME280;39954;48.844;9.726;2023-07-29T02:21:02;95700.94;;;14.62;100.00
54038;BME280;39954;48.844;9.726;2023-07-29T02:22:05;95695.47;;;14.65;100.00
54038;BME280;39954;48.844;9.726;2023-07-29T02:23:10;95701.53;;;14.65;100.00
54038;BME280;39954;48.844;9.726;2023-07-29T02:24:12;95704.00;;;14.67;100.00
54038;BME280;39954;48.844;9.726;2023-07-29T02:25:20;95702.13;;;14.69;100.00
54038;BME280;39954;48.844;9.726;2023-07-29T02:26:22;95708.31;;;14.68;100.00
54038;BME280;39954;48.844;9.726;2023-07-29T02:27:27;95702.38;;;14.66;100.00
54038;BME280;39954;48.844;9.726;2023-07-29T02:28:29;95704.25;;;14.64;100.00
54038;BME280;39954;48.844;9.726;2023-07-29T02:29:34;95699.59;;;14.67;100.00
54038;BME280;39954;48.844;9.726;2023-07-29T02:30:37;95698.44;;;14.71;100.00
54038;BME280;39954;48.844;9.726;2023-07-29T02:31:41;95695.00;;;14.71;100.00
54038;BME280;39954;48.844;9.726;2023-07-29T02:32:45;95697.00;;;14.67;100.00
54038;BME280;39954;48.844;9.726;2023-07-29T02:33:51;95689.88;;;14.69;100.00
54038;BME280;39954;48.844;9.726;2023-07-29T02:34:53;95696.16;;;14.67;100.00
54038;BME280;39954;48.844;9.726;2023-07-29T02:35:58;95694.53;;;14.66;100.00
54038;BME280;39954;48.844;9.726;2023-07-29T02:37:01;95689.41;;;14.64;100.00
54038;BME280;39954;48.844;9.726;2023-07-29T02:38:06;95692.97;;;14.63;100.00
54038;BME280;39954;48.844;9.726;2023-07-29T02:39:08;95697.38;;;14.63;100.00
54038;BME280;39954;48.844;9.726;2023-07-29T02:40:13;95691.31;;;14.62;100.00
54038;BME280;39954;48.844;9.726;2023-07-29T02:41:18;95688.00;;;14.60;100.00
54038;BME280;39954;48.844;9.726;2023-07-29T02:42:20;95687.16;;;14.60;100.00
54038;BME280;39954;48.844;9.726;2023-07-29T02:43:25;95690.72;;;14.59;100.00
54038;BME280;39954;48.844;9.726;2023-07-29T02:44:27;95680.50;;;14.55;100.00
54038;BME280;39954;48.844;9.726;2023-07-29T02:45:32;95687.63;;;14.53;100.00
54038;BME280;39954;48.844;9.726;2023-07-29T02:46:34;95686.06;;;14.51;100.00
54038;BME280;39954;48.844;9.726;2023-07-29T02:47:40;95688.69;;;14.51;100.00
54038;BME280;39954;48.844;9.726;2023-07-29T02:48:42;95682.84;;;14.47;100.00
54038;BME280;39954;48.844;9.726;2023-07-29T02:49:45;95677.03;;;14.44;100.00
54038;BME280;39954;48.844;9.726;2023-07-29T02:50:49;95675.50;;;14.41;100.00
54038;BME280;39954;48.844;9.726;2023-07-29T02:51:52;95680.97;;;14.38;100.00
54038;BME280;39954;48.844;9.726;2023-07-29T02:52:57;95673.38;;;14.35;100.00
54038;BME280;39954;48.844;9.726;2023-07-29T02:53:59;95677.88;;;14.33;100.00
54038;BME280;39954;48.844;9.726;2023-07-29T02:55:05;95675.25;;;14.33;100.00
54038;BME280;39954;48.844;9.726;2023-07-29T02:56:07;95676.22;;;14.32;100.00
54038;BME280;39954;48.844;9.726;2023-07-29T02:57:16;95676.09;;;14.33;100.00
54038;BME280;39954;48.844;9.726;2023-07-29T02:58:19;95679.09;;;14.29;100.00
54038;BME280;39954;48.844;9.726;2023-07-29T02:59:23;95675.75;;;14.27;100.00
54038;BME280;39954;48.844;9.726;2023-07-29T03:00:26;95670.75;;;14.24;100.00
54038;BME280;39954;48.844;9.726;2023-07-29T03:01:31;95667.44;;;14.22;100.00
54038;BME280;39954;48.844;9.726;2023-07-29T03:02:33;95669.47;;;14.18;100.00
54038;BME280;39954;48.844;9.726;2023-07-29T03:03:39;95659.13;;;14.17;100.00
54038;BME280;39954;48.844;9.726;2023-07-29T03:04:41;95669.56;;;14.17;100.00
54038;BME280;39954;48.844;9.726;2023-07-29T03:05:46;95669.56;;;14.17;100.00
54038;BME280;39954;48.844;9.726;2023-07-29T03:06:48;95668.63;;;14.18;100.00
54038;BME280;39954;48.844;9.726;2023-07-29T03:07:53;95661.47;;;14.20;100.00
54038;BME280;39954;48.844;9.726;2023-07-29T03:08:55;95665.06;;;14.19;100.00
54038;BME280;39954;48.844;9.726;2023-07-29T03:10:00;95660.66;;;14.19;100.00
54038;BME280;39954;48.844;9.726;2023-07-29T03:11:05;95652.00;;;14.19;100.00
54038;BME280;39954;48.844;9.726;2023-07-29T03:12:10;95658.19;;;14.18;100.00
54038;BME280;39954;48.844;9.726;2023-07-29T03:13:15;95652.94;;;14.18;100.00
54038;BME280;39954;48.844;9.726;2023-07-29T03:14:20;95654.84;;;14.16;100.00
54038;BME280;39954;48.844;9.726;2023-07-29T03:15:23;95662.69;;;14.16;100.00
54038;BME280;39954;48.844;9.726;2023-07-29T03:16:28;95652.47;;;14.13;100.00
54038;BME280;39954;48.844;9.726;2023-07-29T03:17:31;95656.88;;;14.12;100.00
54038;BME280;39954;48.844;9.726;2023-07-29T03:18:36;95654.38;;;14.10;100.00
54038;BME280;39954;48.844;9.726;2023-07-29T03:19:38;95654.25;;;14.12;100.00
54038;BME280;39954;48.844;9.726;2023-07-29T03:20:43;95651.50;;;14.14;100.00
54038;BME280;39954;48.844;9.726;2023-07-29T03:21:46;95650.59;;;14.15;100.00
54038;BME280;39954;48.844;9.726;2023-07-29T03:22:50;95649.88;;;14.13;100.00
54038;BME280;39954;48.844;9.726;2023-07-29T03:23:53;95655.81;;;14.15;100.00
54038;BME280;39954;48.844;9.726;2023-07-29T03:24:58;95652.47;;;14.13;100.00
54038;BME280;39954;48.844;9.726;2023-07-29T03:26:01;95646.53;;;14.10;100.00
54038;BME280;39954;48.844;9.726;2023-07-29T03:27:11;95646.78;;;14.07;100.00
54038;BME280;39954;48.844;9.726;2023-07-29T03:28:16;95643.44;;;14.05;100.00
54038;BME280;39954;48.844;9.726;2023-07-29T03:29:21;95640.13;;;14.03;100.00
54038;BME280;39954;48.844;9.726;2023-07-29T03:30:24;95648.22;;;14.00;100.00
54038;BME280;39954;48.844;9.726;2023-07-29T03:31:29;95649.28;;;13.98;100.00
54038;BME280;39954;48.844;9.726;2023-07-29T03:32:32;95640.81;;;13.94;100.00
54038;BME280;39954;48.844;9.726;2023-07-29T03:33:37;95626.94;;;13.94;100.00
54038;BME280;39954;48.844;9.726;2023-07-29T03:34:39;95632.16;;;13.94;100.00
54038;BME280;39954;48.844;9.726;2023-07-29T03:35:45;95644.41;;;13.93;100.00
54038;BME280;39954;48.844;9.726;2023-07-29T03:36:47;95630.50;;;13.93;100.00
54038;BME280;39954;48.844;9.726;2023-07-29T03:37:53;95634.91;;;13.92;100.00
54038;BME280;39954;48.844;9.726;2023-07-29T03:38:55;95634.06;;;13.92;100.00
54038;BME280;39954;48.844;9.726;2023-07-29T03:40:00;95626.34;;;13.90;100.00
54038;BME280;39954;48.844;9.726;2023-07-29T03:41:06;95625.53;;;13.90;100.00
54038;BME280;39954;48.844;9.726;2023-07-29T03:42:11;95626.59;;;13.87;100.00
54038;BME280;39954;48.844;9.726;2023-07-29T03:43:16;95621.63;;;13.84;100.00
54038;BME280;39954;48.844;9.726;2023-07-29T03:44:21;95625.28;;;13.81;100.00
54038;BME280;39954;48.844;9.726;2023-07-29T03:45:23;95618.50;;;13.79;100.00
54038;BME280;39954;48.844;9.726;2023-07-29T03:46:28;95630.84;;;13.77;100.00
54038;BME280;39954;48.844;9.726;2023-07-29T03:47:30;95628.47;;;13.74;100.00
54038;BME280;39954;48.844;9.726;2023-07-29T03:48:33;95624.91;;;13.75;100.00
54038;BME280;39954;48.844;9.726;2023-07-29T03:49:38;95626.59;;;13.76;100.00
54038;BME280;39954;48.844;9.726;2023-07-29T03:50:40;95627.28;;;13.78;100.00
54038;BME280;39954;48.844;9.726;2023-07-29T03:51:45;95630.84;;;13.77;100.00
54038;BME280;39954;48.844;9.726;2023-07-29T03:52:47;95630.84;;;13.77;100.00
54038;BME280;39954;48.844;9.726;2023-07-29T03:53:52;95630.84;;;13.77;100.00
54038;BME280;39954;48.844;9.726;2023-07-29T03:54:54;95633.47;;;13.77;100.00
54038;BME280;39954;48.844;9.726;2023-07-29T03:55:59;95636.81;;;13.79;100.00
54038;BME280;39954;48.844;9.726;2023-07-29T03:57:01;95633.22;;;13.80;100.00
54038;BME280;39954;48.844;9.726;2023-07-29T03:58:06;95623.50;;;13.82;100.00
54038;BME280;39954;48.844;9.726;2023-07-29T03:59:11;95634.53;;;13.85;100.00
54038;BME280;39954;48.844;9.726;2023-07-29T04:00:16;95629.06;;;13.88;100.00
54038;BME280;39954;48.844;9.726;2023-07-29T04:01:18;95628.84;;;13.92;100.00
54038;BME280;39954;48.844;9.726;2023-07-29T04:02:24;95635.50;;;13.96;100.00
54038;BME280;39954;48.844;9.726;2023-07-29T04:03:26;95627.31;;;14.00;100.00
54038;BME280;39954;48.844;9.726;2023-07-29T04:04:31;95634.78;;;14.05;100.00
54038;BME280;39954;48.844;9.726;2023-07-29T04:05:33;95628.38;;;14.09;100.00
54038;BME280;39954;48.844;9.726;2023-07-29T04:06:38;95630.63;;;14.14;100.00
54038;BME280;39954;48.844;9.726;2023-07-29T04:07:41;95633.59;;;14.20;100.00
54038;BME280;39954;48.844;9.726;2023-07-29T04:08:46;95631.22;;;14.28;100.00
54038;BME280;39954;48.844;9.726;2023-07-29T04:09:48;95632.38;;;14.36;100.00
54038;BME280;39954;48.844;9.726;2023-07-29T04:10:53;95635.31;;;14.42;100.00
54038;BME280;39954;48.844;9.726;2023-07-29T04:11:55;95629.75;;;14.47;100.00
54038;BME280;39954;48.844;9.726;2023-07-29T04:13:00;95636.28;;;14.52;100.00
54038;BME280;39954;48.844;9.726;2023-07-29T04:14:02;95639.38;;;14.58;100.00
54038;BME280;39954;48.844;9.726;2023-07-29T04:15:10;95631.19;;;14.62;100.00
54038;BME280;39954;48.844;9.726;2023-07-29T04:16:12;95636.03;;;14.67;100.00
54038;BME280;39954;48.844;9.726;2023-07-29T04:17:18;95637.44;;;14.71;100.00
54038;BME280;39954;48.844;9.726;2023-07-29T04:18:21;95631.00;;;14.75;100.00
54038;BME280;39954;48.844;9.726;2023-07-29T04:19:25;95633.38;;;14.78;100.00
54038;BME280;39954;48.844;9.726;2023-07-29T04:20:29;95632.44;;;14.79;100.00
54038;BME280;39954;48.844;9.726;2023-07-29T04:21:35;95637.41;;;14.82;100.00
54038;BME280;39954;48.844;9.726;2023-07-29T04:22:37;95636.19;;;14.86;100.00
54038;BME280;39954;48.844;9.726;2023-07-29T04:23:42;95628.09;;;14.89;100.00
54038;BME280;39954;48.844;9.726;2023-07-29T04:24:44;95632.41;;;14.90;100.00
54038;BME280;39954;48.844;9.726;2023-07-29T04:25:49;95629.78;;;14.90;100.00
54038;BME280;39954;48.844;9.726;2023-07-29T04:26:51;95629.78;;;14.90;100.00
54038;BME280;39954;48.844;9.726;2023-07-29T04:27:56;95628.00;;;14.91;100.00
54038;BME280;39954;48.844;9.726;2023-07-29T04:29:00;95626.91;;;14.93;100.00
54038;BME280;39954;48.844;9.726;2023-07-29T04:30:06;95626.09;;;14.93;100.00
54038;BME280;39954;48.844;9.726;2023-07-29T04:31:11;95620.84;;;14.93;100.00
54038;BME280;39954;48.844;9.726;2023-07-29T04:32:16;95624.28;;;14.93;100.00
54038;BME280;39954;48.844;9.726;2023-07-29T04:33:18;95631.06;;;14.96;100.00
54038;BME280;39954;48.844;9.726;2023-07-29T04:34:23;95636.16;;;14.97;100.00
54038;BME280;39954;48.844;9.726;2023-07-29T04:35:25;95635.22;;;14.98;100.00
54038;BME280;39954;48.844;9.726;2023-07-29T04:36:30;95635.22;;;14.98;100.00
54038;BME280;39954;48.844;9.726;2023-07-29T04:37:33;95643.50;;;15.04;100.00
54038;BME280;39954;48.844;9.726;2023-07-29T04:38:38;95650.16;;;15.08;100.00
54038;BME280;39954;48.844;9.726;2023-07-29T04:39:40;95642.31;;;15.08;100.00
54038;BME280;39954;48.844;9.726;2023-07-29T04:40:45;95641.59;;;15.06;100.00
54038;BME280;39954;48.844;9.726;2023-07-29T04:41:47;95639.81;;;15.06;100.00
54038;BME280;39954;48.844;9.726;2023-07-29T04:42:52;95638.00;;;15.07;100.00
54038;BME280;39954;48.844;9.726;2023-07-29T04:43:54;95626.72;;;15.06;100.00
54038;BME280;39954;48.844;9.726;2023-07-29T04:44:59;95631.03;;;15.07;100.00
54038;BME280;39954;48.844;9.726;2023-07-29T04:46:01;95639.69;;;15.08;100.00
54038;BME280;39954;48.844;9.726;2023-07-29T04:47:09;95638.72;;;15.09;100.00
54038;BME280;39954;48.844;9.726;2023-07-29T04:48:11;95634.72;;;15.05;100.00
54038;BME280;39954;48.844;9.726;2023-07-29T04:49:16;95641.75;;;15.04;100.00
54038;BME280;39954;48.844;9.726;2023-07-29T04:50:18;95640.63;;;15.07;100.00
54038;BME280;39954;48.844;9.726;2023-07-29T04:51:24;95636.25;;;15.07;100.00
54038;BME280;39954;48.844;9.726;2023-07-29T04:52:26;95632.78;;;15.07;100.00
54038;BME280;39954;48.844;9.726;2023-07-29T04:53:31;95638.72;;;15.09;100.00
54038;BME280;39954;48.844;9.726;2023-07-29T04:54:35;95634.22;;;15.11;100.00
54038;BME280;39954;48.844;9.726;2023-07-29T04:55:41;95637.28;;;15.16;100.00
54038;BME280;39954;48.844;9.726;2023-07-29T04:56:43;95634.28;;;15.20;100.00
54038;BME280;39954;48.844;9.726;2023-07-29T04:57:48;95637.03;;;15.19;100.00
54038;BME280;39954;48.844;9.726;2023-07-29T04:58:50;95630.25;;;15.16;100.00
54038;BME280;39954;48.844;9.726;2023-07-29T04:59:55;95630.38;;;15.15;100.00
54038;BME280;39954;48.844;9.726;2023-07-29T05:00:57;95639.06;;;15.15;100.00
54038;BME280;39954;48.844;9.726;2023-07-29T05:02:03;95645.13;;;15.16;100.00
54038;BME280;39954;48.844;9.726;2023-07-29T05:03:08;95646.66;;;15.18;100.00
54038;BME280;39954;48.844;9.726;2023-07-29T05:04:13;95640.63;;;15.18;100.00
54038;BME280;39954;48.844;9.726;2023-07-29T05:05:15;95640.47;;;15.19;100.00
54038;BME280;39954;48.844;9.726;2023-07-29T05:06:20;95645.34;;;15.24;100.00
54038;BME280;39954;48.844;9.726;2023-07-29T05:07:22;95652.13;;;15.27;100.00
54038;BME280;39954;48.844;9.726;2023-07-29T05:08:25;95644.81;;;15.30;100.00
54038;BME280;39954;48.844;9.726;2023-07-29T05:09:30;95649.81;;;15.33;100.00
54038;BME280;39954;48.844;9.726;2023-07-29T05:10:32;95654.06;;;15.34;100.00
54038;BME280;39954;48.844;9.726;2023-07-29T05:11:39;95654.47;;;15.30;100.00
54038;BME280;39954;48.844;9.726;2023-07-29T05:12:41;95657.47;;;15.25;100.00
54038;BME280;39954;48.844;9.726;2023-07-29T05:13:46;95655.03;;;15.33;100.00
54038;BME280;39954;48.844;9.726;2023-07-29T05:14:51;95657.66;;;15.33;100.00
54038;BME280;39954;48.844;9.726;2023-07-29T05:15:53;95653.41;;;15.32;100.00
54038;BME280;39954;48.844;9.726;2023-07-29T05:16:58;95652.53;;;15.32;100.00
54038;BME280;39954;48.844;9.726;2023-07-29T05:18:00;95658.88;;;15.29;100.00
54038;BME280;39954;48.844;9.726;2023-07-29T05:19:08;95660.78;;;15.27;100.00
54038;BME280;39954;48.844;9.726;2023-07-29T05:20:10;95666.38;;;15.22;100.00
54038;BME280;39954;48.844;9.726;2023-07-29T05:21:16;95667.63;;;15.18;100.00
54038;BME280;39954;48.844;9.726;2023-07-29T05:22:18;95680.56;;;15.20;100.00
54038;BME280;39954;48.844;9.726;2023-07-29T05:23:23;95688.63;;;15.28;100.00
54038;BME280;39954;48.844;9.726;2023-07-29T05:24:26;95685.28;;;15.26;100.00
54038;BME280;39954;48.844;9.726;2023-07-29T05:25:31;95677.31;;;15.28;100.00
54038;BME280;39954;48.844;9.726;2023-07-29T05:26:33;95688.63;;;15.28;100.00
54038;BME280;39954;48.844;9.726;2023-07-29T05:27:39;95689.31;;;15.30;100.00
54038;BME280;39954;48.844;9.726;2023-07-29T05:28:41;95681.34;;;15.32;100.00
54038;BME280;39954;48.844;9.726;2023-07-29T05:29:46;95677.88;;;15.31;100.00
54038;BME280;39954;48.844;9.726;2023-07-29T05:30:48;95695.03;;;15.35;100.00
54038;BME280;39954;48.844;9.726;2023-07-29T05:31:53;95692.25;;;15.37;100.00
54038;BME280;39954;48.844;9.726;2023-07-29T05:32:55;95687.16;;;15.35;100.00
54038;BME280;39954;48.844;9.726;2023-07-29T05:34:01;95684.66;;;15.34;100.00
54038;BME280;39954;48.844;9.726;2023-07-29T05:35:06;95685.50;;;15.34;100.00
54038;BME280;39954;48.844;9.726;2023-07-29T05:36:11;95682.31;;;15.31;100.00
54038;BME280;39954;48.844;9.726;2023-07-29T05:37:14;95688.81;;;15.36;100.00